Saint Andrews, Tennessee
Current Conditions -  °F | °C
As of 11:55 PM on Wednesday 26 Nov 2014 (Local Time) from KBGF Reporting Station
Broken Clouds Broken Clouds  
Wind Chill: 32°   Ceiling: 2800
Heat Index: 39°   Visibility: 10mi
Dew Point: 32°   Wind: 10mph
Humidity: 75%   Direction: 270°W
Pressure: 30.1"   Gusts: NA
Location:  35.21°N, 85.89°W
Report Text: KBGF 270555Z AUTO 27009KT 10SM BKN028 BKN032 04/00 A3010 RMK
Loading
Personal Weather Stations






























Interactive Weather Map New forecast layout! Learn more

10-Day Weather Forecast

Advertisements
Track Severe Weather on mobile